Time;durP1;ratioP1;P1;durP2;ratioP2;P2;SDS_P1;SDS_P2;PMS_P1;PMS_P2;Temp;Humidity;BMP_temperature;BMP_pressure;BME280_temperature;BME280_humidity;BME280_pressure;Samples;Min_cycle;Max_cycle;Signal;HPM_P1;HPM_P2
2024/04/04 00:00:00;;;;;;;3.63;2.80;;;10.80;99.90;;;;;;5070450;28;20094;-73
2024/04/04 00:02:28;;;;;;;3.55;3.03;;;10.80;99.90;;;;;;5068684;28;20028;-73
2024/04/04 00:05:02;;;;;;;3.15;2.72;;;10.80;99.90;;;;;;5059956;28;20036;-74
2024/04/04 00:07:28;;;;;;;3.60;2.78;;;10.90;99.90;;;;;;5060540;28;20044;-73
2024/04/04 00:09:54;;;;;;;4.38;3.00;;;10.90;99.90;;;;;;5068616;28;20033;-74
2024/04/04 00:12:29;;;;;;;4.78;2.72;;;10.90;99.90;;;;;;5068254;28;20351;-73
2024/04/04 00:14:57;;;;;;;4.32;2.78;;;10.90;99.90;;;;;;5068036;28;20024;-73
2024/04/04 00:17:23;;;;;;;3.25;2.58;;;10.90;99.90;;;;;;5069896;28;20021;-73
2024/04/04 00:19:50;;;;;;;5.63;2.78;;;10.90;99.90;;;;;;5070066;28;20036;-73
2024/04/04 00:22:18;;;;;;;4.15;2.72;;;10.90;99.90;;;;;;5068505;28;20024;-73
2024/04/04 00:24:45;;;;;;;4.97;2.88;;;10.90;99.90;;;;;;5069411;28;20140;-73
2024/04/04 00:27:13;;;;;;;3.13;2.70;;;10.90;99.90;;;;;;5068416;28;20059;-74
2024/04/04 00:29:39;;;;;;;3.45;2.92;;;10.80;99.90;;;;;;5068285;28;20028;-73
2024/04/04 00:32:05;;;;;;;3.50;2.65;;;10.80;99.90;;;;;;5069279;28;20109;-74
2024/04/04 00:34:31;;;;;;;5.85;2.50;;;10.80;99.90;;;;;;5067903;28;20017;-73
2024/04/04 00:36:57;;;;;;;5.68;2.90;;;10.80;99.90;;;;;;5068347;28;20024;-73
2024/04/04 00:39:22;;;;;;;4.88;2.67;;;10.70;99.90;;;;;;5068458;28;20039;-73
2024/04/04 00:41:48;;;;;;;4.07;2.83;;;10.80;99.90;;;;;;5069253;28;20038;-73
2024/04/04 00:44:14;;;;;;;3.50;2.53;;;10.70;99.90;;;;;;5068928;28;20077;-73
2024/04/04 00:46:43;;;;;;;3.72;2.47;;;10.70;99.90;;;;;;5059585;28;20033;-73
2024/04/04 00:49:12;;;;;;;6.43;2.73;;;10.70;99.90;;;;;;5069460;28;20486;-73
2024/04/04 00:51:38;;;;;;;7.07;3.03;;;10.60;99.90;;;;;;5068031;28;20529;-73
2024/04/04 00:54:07;;;;;;;3.20;2.45;;;10.60;99.90;;;;;;5067686;28;20108;-73
2024/04/04 00:56:33;;;;;;;4.78;3.22;;;10.60;99.90;;;;;;5069290;28;20043;-73
2024/04/04 00:58:59;;;;;;;5.22;3.00;;;10.60;99.90;;;;;;5068297;28;20017;-73
2024/04/04 01:01:28;;;;;;;10.43;3.10;;;10.60;99.90;;;;;;5069357;28;20017;-73
2024/04/04 01:03:54;;;;;;;4.38;2.47;;;10.60;99.90;;;;;;5059845;28;20594;-73
2024/04/04 01:06:37;;;;;;;5.03;2.95;;;10.60;99.90;;;;;;5069599;28;20028;-73
2024/04/04 01:09:03;;;;;;;4.00;2.35;;;10.60;99.90;;;;;;5053159;28;20084;-73
2024/04/04 01:11:32;;;;;;;5.80;2.53;;;10.70;99.90;;;;;;5067938;28;20069;-73
2024/04/04 01:13:58;;;;;;;7.20;2.40;;;10.70;99.90;;;;;;5067375;28;20021;-73
2024/04/04 01:16:26;;;;;;;7.65;2.78;;;10.70;99.90;;;;;;5067706;28;20021;-73
2024/04/04 01:18:52;;;;;;;9.35;2.55;;;10.70;99.90;;;;;;5067707;28;20020;-74
2024/04/04 01:21:20;;;;;;;2.97;2.22;;;10.70;99.90;;;;;;5067671;28;20012;-73
2024/04/04 01:23:46;;;;;;;4.40;2.00;;;10.70;99.90;;;;;;5068628;28;20501;-73
2024/04/04 01:26:14;;;;;;;3.10;2.05;;;10.70;99.90;;;;;;5067806;28;20117;-73
2024/04/04 01:28:44;;;;;;;5.72;1.80;;;10.70;99.90;;;;;;5067512;28;20346;-74
2024/04/04 01:31:36;;;;;;;6.82;2.30;;;10.70;99.90;;;;;;5069214;28;20446;-73
2024/04/04 01:34:01;;;;;;;3.72;1.65;;;10.70;99.90;;;;;;5064433;28;20036;-74
2024/04/04 01:36:30;;;;;;;4.80;2.10;;;10.70;99.90;;;;;;5069321;28;20120;-73
2024/04/04 01:38:56;;;;;;;4.38;2.05;;;10.70;99.90;;;;;;5070795;28;20031;-74
2024/04/04 01:41:25;;;;;;;4.93;1.80;;;10.70;99.90;;;;;;5069504;28;20553;-74
2024/04/04 01:43:51;;;;;;;5.55;2.20;;;10.70;99.90;;;;;;5061389;28;20025;-73
2024/04/04 01:46:19;;;;;;;3.20;1.73;;;10.70;99.90;;;;;;5069201;28;20469;-73
2024/04/04 01:48:47;;;;;;;1.65;1.45;;;10.70;99.90;;;;;;5066808;28;20032;-74
2024/04/04 01:51:16;;;;;;;5.68;2.15;;;10.70;99.90;;;;;;5061484;28;20021;-74
2024/04/04 01:53:44;;;;;;;4.78;2.25;;;10.70;99.90;;;;;;5068635;28;20373;-74
2024/04/04 01:56:09;;;;;;;2.95;1.70;;;10.70;99.90;;;;;;5069291;28;20358;-74
2024/04/04 01:58:38;;;;;;;5.78;1.80;;;10.70;99.90;;;;;;5068341;28;20099;-73
2024/04/04 02:01:07;;;;;;;3.80;2.08;;;10.70;99.90;;;;;;5067333;28;20031;-73
2024/04/04 02:03:32;;;;;;;2.83;1.70;;;10.60;99.90;;;;;;5066957;28;20064;-73
2024/04/04 02:06:01;;;;;;;7.25;2.15;;;10.70;99.90;;;;;;5057701;28;20417;-73
2024/04/04 02:08:27;;;;;;;5.97;2.20;;;10.60;99.90;;;;;;5053978;28;20116;-73
2024/04/04 02:10:56;;;;;;;2.83;1.75;;;10.60;99.90;;;;;;5068579;28;20115;-73
2024/04/04 02:13:26;;;;;;;4.10;1.58;;;10.60;99.90;;;;;;5066696;28;20095;-74
2024/04/04 02:15:52;;;;;;;;;;;10.60;99.90;;;;;;5067462;28;20028;-74
2024/04/04 02:18:17;;;;;;;6.18;1.50;;;10.60;99.90;;;;;;5068702;28;19905;-74
2024/04/04 02:20:46;;;;;;;4.45;1.65;;;10.60;99.90;;;;;;5067743;28;20135;-73
2024/04/04 02:23:12;;;;;;;4.38;1.70;;;10.60;99.90;;;;;;5070891;28;20134;-74
2024/04/04 02:25:40;;;;;;;5.15;1.90;;;10.60;99.90;;;;;;5072454;28;20075;-73
2024/04/04 02:28:09;;;;;;;6.65;1.90;;;10.60;99.90;;;;;;5072222;28;20036;-73
2024/04/04 02:30:36;;;;;;;4.45;1.77;;;10.60;99.90;;;;;;5072086;28;20020;-74
2024/04/04 02:33:02;;;;;;;6.15;1.80;;;10.60;99.90;;;;;;5070730;28;20023;-73
2024/04/04 02:35:30;;;;;;;5.75;1.80;;;10.60;99.90;;;;;;5070250;28;20100;-73
2024/04/04 02:37:57;;;;;;;4.18;1.67;;;10.60;99.90;;;;;;5070694;28;20116;-73
2024/04/04 02:40:24;;;;;;;3.78;1.75;;;10.60;99.90;;;;;;5059841;28;20046;-73
2024/04/04 02:42:50;;;;;;;4.60;1.60;;;10.60;99.90;;;;;;5067592;28;20024;-73
2024/04/04 02:45:24;;;;;;;8.68;1.90;;;10.60;99.90;;;;;;5069263;28;20020;-74
2024/04/04 02:47:50;;;;;;;4.93;1.98;;;10.60;99.90;;;;;;5070567;28;20048;-74
2024/04/04 02:50:15;;;;;;;2.63;1.55;;;10.50;99.90;;;;;;5070324;28;20441;-74
2024/04/04 02:52:44;;;;;;;6.60;1.67;;;10.50;99.90;;;;;;5070368;28;20334;-74
2024/04/04 02:55:12;;;;;;;6.13;1.77;;;10.50;99.90;;;;;;5070479;28;20043;-74
2024/04/04 02:57:38;;;;;;;5.75;1.85;;;10.50;99.90;;;;;;5069838;28;20028;-73
2024/04/04 03:00:11;;;;;;;4.93;1.80;;;10.50;99.90;;;;;;5065121;28;20024;-73
2024/04/04 03:02:41;;;;;;;4.47;1.77;;;10.50;99.90;;;;;;5067379;28;20021;-74
2024/04/04 03:05:07;;;;;;;12.57;2.00;;;10.50;99.90;;;;;;5069829;28;20104;-73
2024/04/04 03:07:33;;;;;;;2.40;1.52;;;10.50;99.90;;;;;;5071648;28;20111;-73
2024/04/04 03:10:01;;;;;;;2.70;1.58;;;10.50;99.90;;;;;;5062040;28;20095;-73
2024/04/04 03:12:29;;;;;;;5.97;1.98;;;10.40;99.90;;;;;;5071381;28;20016;-74
2024/04/04 03:14:58;;;;;;;4.47;1.60;;;10.40;99.90;;;;;;5069707;28;20025;-73
2024/04/04 03:17:24;;;;;;;6.32;2.00;;;10.40;99.90;;;;;;5069892;28;20020;-73
2024/04/04 03:19:50;;;;;;;9.05;2.15;;;10.40;99.90;;;;;;5070006;28;20449;-73
2024/04/04 03:22:19;;;;;;;6.75;2.30;;;10.50;99.90;;;;;;5069796;28;20489;-73
2024/04/04 03:24:47;;;;;;;4.90;1.85;;;10.50;99.90;;;;;;5069413;28;20029;-74
2024/04/04 03:27:13;;;;;;;6.95;1.70;;;10.50;99.90;;;;;;5069777;28;20016;-73
2024/04/04 03:29:41;;;;;;;4.97;2.10;;;10.40;99.90;;;;;;5069689;28;20066;-73
2024/04/04 03:32:09;;;;;;;9.20;1.92;;;10.40;99.90;;;;;;5068991;28;20028;-73
2024/04/04 03:34:38;;;;;;;3.97;1.50;;;10.40;99.90;;;;;;5069056;28;20025;-73
2024/04/04 03:37:03;;;;;;;11.20;2.80;;;10.40;99.90;;;;;;5069136;28;20025;-74
2024/04/04 03:39:29;;;;;;;4.22;1.83;;;10.40;99.90;;;;;;5070670;28;20031;-73
2024/04/04 03:41:55;;;;;;;5.45;2.03;;;10.40;99.90;;;;;;5067917;28;20024;-73
2024/04/04 03:44:27;;;;;;;5.68;2.35;;;10.40;99.90;;;;;;5062147;28;20035;-74
2024/04/04 03:46:52;;;;;;;11.98;2.60;;;10.40;99.90;;;;;;5070822;28;20070;-73
2024/04/04 03:49:20;;;;;;;5.90;2.15;;;10.40;99.90;;;;;;5070749;28;20024;-74
2024/04/04 03:51:47;;;;;;;3.08;1.88;;;10.40;99.90;;;;;;5070969;28;20078;-73
2024/04/04 03:54:13;;;;;;;8.43;2.58;;;10.30;99.90;;;;;;5054382;28;20017;-74
2024/04/04 03:56:39;;;;;;;5.50;1.70;;;10.30;99.90;;;;;;5069204;28;20062;-73
2024/04/04 03:59:04;;;;;;;2.55;1.70;;;10.20;99.90;;;;;;5068825;28;20461;-74
2024/04/04 04:01:32;;;;;;;5.25;1.83;;;10.20;99.90;;;;;;5070704;28;20017;-73
2024/04/04 04:03:57;;;;;;;6.95;2.00;;;10.20;99.90;;;;;;5059209;28;20089;-74
2024/04/04 04:06:23;;;;;;;6.85;2.20;;;10.20;99.90;;;;;;5070279;28;20123;-73
2024/04/04 04:08:49;;;;;;;3.70;1.50;;;10.10;99.90;;;;;;5060841;28;20028;-73
2024/04/04 04:11:15;;;;;;;4.18;2.00;;;10.10;99.90;;;;;;5072518;28;20468;-73
2024/04/04 04:13:44;;;;;;;7.45;2.10;;;10.10;99.90;;;;;;5064741;28;20109;-73
2024/04/04 04:16:11;;;;;;;4.85;1.52;;;10.00;99.90;;;;;;5071970;28;20020;-74
2024/04/04 04:18:39;;;;;;;8.15;1.90;;;10.00;99.90;;;;;;5065402;28;20025;-74
2024/04/04 04:21:19;;;;;;;5.20;1.75;;;10.00;99.90;;;;;;5070710;28;20033;-74
2024/04/04 04:23:49;;;;;;;2.90;1.67;;;9.90;99.90;;;;;;5062208;28;20089;-73
2024/04/04 04:26:15;;;;;;;6.55;2.17;;;9.90;99.90;;;;;;5057938;28;20036;-73
2024/04/04 04:28:41;;;;;;;5.60;1.70;;;9.90;99.90;;;;;;5071607;28;20099;-74
2024/04/04 04:31:23;;;;;;;8.00;2.22;;;9.90;99.90;;;;;;5070079;28;20446;-73
2024/04/04 04:33:49;;;;;;;4.95;2.05;;;9.80;99.90;;;;;;5071902;28;20025;-73
2024/04/04 04:36:16;;;;;;;6.97;1.70;;;9.80;99.90;;;;;;5070047;28;20621;-73
2024/04/04 04:38:42;;;;;;;5.55;1.80;;;9.70;99.90;;;;;;5070105;28;20029;-73
2024/04/04 04:41:13;;;;;;;3.55;2.15;;;9.70;99.90;;;;;;5061875;28;20037;-73
2024/04/04 04:43:43;;;;;;;8.35;2.10;;;9.60;99.90;;;;;;5071190;28;20550;-72
2024/04/04 04:46:10;;;;;;;5.95;2.13;;;9.60;99.90;;;;;;5070561;28;20219;-73
2024/04/04 04:48:35;;;;;;;5.35;1.65;;;9.60;99.90;;;;;;5070570;28;20357;-73
2024/04/04 04:51:04;;;;;;;12.30;2.35;;;9.50;99.90;;;;;;5070555;28;20024;-73
2024/04/04 04:53:30;;;;;;;6.82;2.00;;;9.50;99.90;;;;;;5063610;28;20489;-74
2024/04/04 04:55:59;;;;;;;4.90;2.42;;;9.40;99.90;;;;;;5071522;28;20052;-72
2024/04/04 04:58:24;;;;;;;9.40;2.35;;;9.40;99.90;;;;;;5064058;28;20094;-73
2024/04/04 05:00:53;;;;;;;8.75;2.83;;;9.40;99.90;;;;;;5071697;28;20438;-73
2024/04/04 05:03:23;;;;;;;5.28;1.95;;;9.30;99.90;;;;;;5064103;28;20111;-73
2024/04/04 05:08:41;;;;;;;5.68;1.92;;;9.30;99.90;;;;;;5049897;28;20087;-73
2024/04/04 05:11:07;;;;;;;6.88;2.35;;;9.30;99.90;;;;;;5069865;28;20107;-73
2024/04/04 05:13:36;;;;;;;9.02;1.98;;;9.30;99.90;;;;;;5063429;28;20400;-73
2024/04/04 05:16:02;;;;;;;7.25;2.10;;;9.20;99.90;;;;;;5068381;28;20116;-72
2024/04/04 06:23:34;;;;;;;5.50;1.50;;;10.30;99.90;;;;;;6114842;22;19935;-73
2024/04/04 06:26:00;;;;;;;6.85;1.50;;;10.50;99.90;;;;;;5010990;28;20038;-73
2024/04/04 06:28:25;;;;;;;6.03;1.50;;;10.60;99.90;;;;;;5012744;28;20092;-73
2024/04/04 06:30:51;;;;;;;4.50;1.23;;;10.70;99.90;;;;;;5012520;28;20014;-73
2024/04/04 06:33:17;;;;;;;9.95;1.95;;;10.70;99.90;;;;;;4986065;28;20117;-73
2024/04/04 06:35:43;;;;;;;5.65;1.60;;;10.80;99.90;;;;;;4994811;28;20018;-73
2024/04/04 06:38:20;;;;;;;6.18;1.52;;;10.80;99.90;;;;;;4994445;28;20610;-73
2024/04/04 06:40:46;;;;;;;6.35;1.77;;;10.80;99.90;;;;;;4994575;28;20014;-73
2024/04/04 06:43:11;;;;;;;3.88;1.45;;;10.90;99.90;;;;;;4994161;28;20029;-73
2024/04/04 06:45:40;;;;;;;8.75;2.45;;;10.90;99.90;;;;;;5012270;28;20029;-73
2024/04/04 06:48:08;;;;;;;13.05;1.67;;;10.80;99.90;;;;;;4994174;28;20101;-73
2024/04/04 06:50:34;;;;;;;4.32;1.35;;;10.80;99.90;;;;;;4999762;28;20319;-73
2024/04/04 06:53:01;;;;;;;5.97;1.30;;;10.80;99.90;;;;;;4990772;28;20037;-74
2024/04/04 06:55:28;;;;;;;3.58;1.45;;;10.70;99.90;;;;;;4994481;28;20076;-74
2024/04/04 06:57:53;;;;;;;4.53;1.35;;;10.80;99.90;;;;;;4994381;28;20126;-75
2024/04/04 07:00:20;;;;;;;5.85;1.50;;;10.70;99.90;;;;;;4993981;28;20026;-74
2024/04/04 07:02:46;;;;;;;3.15;1.40;;;10.70;99.90;;;;;;5012046;28;20033;-73
2024/04/04 07:05:11;;;;;;;4.95;1.65;;;10.50;99.90;;;;;;4994066;28;20148;-74
2024/04/04 07:07:37;;;;;;;2.92;1.10;;;10.40;99.90;;;;;;4993577;28;20478;-74
2024/04/04 07:10:06;;;;;;;5.80;1.67;;;10.30;99.90;;;;;;5003659;28;20450;-75
2024/04/04 07:12:32;;;;;;;3.00;1.35;;;10.10;99.90;;;;;;5011622;28;20028;-74
2024/04/04 07:14:59;;;;;;;6.47;1.60;;;10.00;99.90;;;;;;4993833;28;20119;-74
2024/04/04 07:17:28;;;;;;;7.05;2.83;;;9.90;99.90;;;;;;5011686;28;20153;-74
2024/04/04 07:19:54;;;;;;;7.10;3.25;;;9.90;99.90;;;;;;4994198;28;20513;-74
2024/04/04 07:22:21;;;;;;;9.30;2.20;;;9.90;99.90;;;;;;4995185;28;20108;-74
2024/04/04 07:24:49;;;;;;;11.65;2.05;;;9.90;99.90;;;;;;5011167;28;20177;-74
2024/04/04 07:27:17;;;;;;;3.83;1.83;;;9.90;99.90;;;;;;5011516;28;20026;-74
2024/04/04 07:29:43;;;;;;;11.88;2.28;;;9.90;99.90;;;;;;5011714;28;20030;-75
2024/04/04 07:32:13;;;;;;;5.85;2.17;;;9.90;99.90;;;;;;4993412;28;20026;-74
2024/04/04 07:34:39;;;;;;;8.40;2.10;;;10.00;99.90;;;;;;5010891;28;20104;-74
2024/04/04 07:37:05;;;;;;;3.78;1.75;;;10.00;99.90;;;;;;5011227;28;20412;-75
2024/04/04 07:39:33;;;;;;;10.20;1.73;;;10.10;99.90;;;;;;4993774;28;20072;-75
2024/04/04 07:41:59;;;;;;;5.40;2.30;;;10.10;99.90;;;;;;4992849;28;20033;-74
2024/04/04 07:44:25;;;;;;;8.98;1.60;;;10.10;99.90;;;;;;4992855;28;20022;-74
2024/04/04 07:46:54;;;;;;;4.22;1.55;;;10.20;99.90;;;;;;4993220;28;20048;-74
2024/04/04 07:49:20;;;;;;;4.05;1.33;;;10.20;99.90;;;;;;5011097;28;20406;-74
2024/04/04 07:51:49;;;;;;;6.43;1.70;;;10.20;99.90;;;;;;4993125;28;20023;-74
2024/04/04 07:54:15;;;;;;;6.72;1.67;;;10.30;99.90;;;;;;4992571;28;20200;-74
2024/04/04 07:56:43;;;;;;;10.50;1.98;;;10.30;99.90;;;;;;5010845;28;20518;-74
2024/04/04 07:59:12;;;;;;;7.20;1.85;;;10.30;99.90;;;;;;5002473;28;20345;-74
2024/04/04 08:01:38;;;;;;;4.15;1.33;;;10.30;99.90;;;;;;5010670;28;20493;-74
2024/04/04 08:04:06;;;;;;;4.45;1.65;;;10.30;99.90;;;;;;4992344;28;20038;-73
2024/04/04 08:06:32;;;;;;;5.40;1.75;;;10.30;99.90;;;;;;4992682;28;20025;-74
2024/04/04 08:08:59;;;;;;;3.35;1.50;;;10.30;99.90;;;;;;4992602;28;20515;-74
2024/04/04 08:11:26;;;;;;;7.78;2.28;;;10.40;99.90;;;;;;4992527;28;20037;-74
2024/04/04 08:13:53;;;;;;;8.40;2.03;;;10.40;99.90;;;;;;4986060;28;20019;-74
2024/04/04 08:16:20;;;;;;;6.97;2.10;;;10.40;99.90;;;;;;4991139;28;20061;-74
2024/04/04 08:18:46;;;;;;;4.10;1.77;;;10.40;99.90;;;;;;4992178;28;20014;-74
2024/04/04 08:21:16;;;;;;;8.00;2.17;;;10.40;99.90;;;;;;4991416;28;20494;-74
2024/04/04 08:23:45;;;;;;;12.27;2.20;;;10.40;99.90;;;;;;4984151;28;20034;-73
2024/04/04 08:26:11;;;;;;;9.45;2.20;;;10.50;99.90;;;;;;4992632;28;20062;-74
2024/04/04 08:28:42;;;;;;;9.90;2.20;;;10.50;99.90;;;;;;4992669;28;20033;-74
2024/04/04 08:31:10;;;;;;;3.38;1.67;;;10.50;99.90;;;;;;4992849;28;20025;-74
2024/04/04 08:33:36;;;;;;;10.75;2.30;;;10.50;99.90;;;;;;5009860;28;20076;-73
2024/04/04 08:36:02;;;;;;;6.50;1.95;;;10.50;99.90;;;;;;5010325;28;20033;-74
2024/04/04 08:38:28;;;;;;;7.82;1.95;;;10.60;99.90;;;;;;5010065;28;20079;-74
2024/04/04 08:41:07;;;;;;;7.97;2.17;;;10.60;99.90;;;;;;4992333;28;20048;-73
2024/04/04 08:43:34;;;;;;;8.88;1.88;;;10.70;99.90;;;;;;4992041;28;20053;-74
2024/04/04 08:46:02;;;;;;;4.25;1.80;;;10.70;99.90;;;;;;4992676;28;20569;-74
2024/04/04 08:48:28;;;;;;;5.78;1.60;;;10.70;99.90;;;;;;4992284;28;20021;-74
2024/04/04 08:50:54;;;;;;;6.32;2.20;;;10.80;99.90;;;;;;4984361;28;20502;-74
2024/04/04 08:53:27;;;;;;;7.00;2.10;;;10.80;99.90;;;;;;4991497;28;20034;-74
2024/04/04 08:55:55;;;;;;;5.90;1.60;;;10.90;99.90;;;;;;5010136;28;20061;-74
2024/04/04 08:58:24;;;;;;;8.32;1.83;;;11.00;99.90;;;;;;4992209;28;20034;-74
2024/04/04 09:00:51;;;;;;;9.32;1.67;;;11.00;99.90;;;;;;5010258;28;20471;-73
2024/04/04 09:03:18;;;;;;;8.20;1.70;;;11.10;99.90;;;;;;5010036;28;20038;-74
2024/04/04 09:05:45;;;;;;;5.85;2.05;;;11.10;99.90;;;;;;4992507;28;20390;-73
2024/04/04 09:08:12;;;;;;;6.00;2.00;;;11.10;99.90;;;;;;5010174;28;20564;-74
2024/04/04 09:10:41;;;;;;;6.88;1.98;;;11.10;99.90;;;;;;4992320;28;20036;-74
2024/04/04 09:13:11;;;;;;;7.00;1.90;;;11.10;99.90;;;;;;4991874;28;20022;-74
2024/04/04 09:15:38;;;;;;;4.45;1.83;;;11.10;99.90;;;;;;5009823;28;20025;-74
2024/04/04 09:18:09;;;;;;;4.53;1.63;;;11.10;99.90;;;;;;4984670;28;20034;-73
2024/04/04 09:20:39;;;;;;;5.68;2.58;;;11.10;99.90;;;;;;4991782;28;20029;-73
2024/04/04 09:23:09;;;;;;;6.93;2.42;;;11.10;99.90;;;;;;4991719;28;20084;-74
2024/04/04 09:25:37;;;;;;;6.00;1.88;;;11.00;99.90;;;;;;4991267;28;20552;-74
2024/04/04 09:28:08;;;;;;;7.95;2.65;;;11.00;99.90;;;;;;4991751;28;20046;-74
2024/04/04 09:30:36;;;;;;;8.95;2.15;;;11.00;99.90;;;;;;4991243;28;20032;-74
2024/04/04 09:33:05;;;;;;;8.18;1.85;;;11.00;99.90;;;;;;4991524;28;20045;-74
2024/04/04 09:35:31;;;;;;;6.72;2.00;;;11.10;99.90;;;;;;5008708;28;20025;-74
2024/04/04 09:37:59;;;;;;;4.85;1.98;;;11.10;99.90;;;;;;5009225;28;20105;-74
2024/04/04 09:40:24;;;;;;;5.85;2.22;;;11.10;99.90;;;;;;4991526;28;20026;-74
2024/04/04 09:42:51;;;;;;;6.18;2.60;;;11.10;99.90;;;;;;5009319;28;20075;-74
2024/04/04 09:45:16;;;;;;;7.63;2.15;;;11.10;99.90;;;;;;4990955;28;20541;-74
2024/04/04 09:47:47;;;;;;;4.85;2.03;;;11.10;99.90;;;;;;5009620;28;20018;-74
2024/04/04 09:50:17;;;;;;;10.05;1.88;;;11.10;99.90;;;;;;5009357;28;20029;-74
2024/04/04 09:52:43;;;;;;;4.10;1.95;;;11.10;99.90;;;;;;4990430;28;20026;-74
2024/04/04 09:55:19;;;;;;;5.07;2.40;;;11.10;99.90;;;;;;4990896;28;20037;-74
2024/04/04 09:57:45;;;;;;;4.93;2.47;;;11.10;99.90;;;;;;5000655;28;20069;-74
2024/04/04 10:00:17;;;;;;;5.10;2.30;;;11.10;99.90;;;;;;4991470;28;20544;-75
2024/04/04 10:03:00;;;;;;;5.78;2.60;;;11.00;99.90;;;;;;5009630;28;20207;-74
2024/04/04 10:05:35;;;;;;;6.53;3.15;;;11.00;99.90;;;;;;4983415;28;20509;-74
2024/04/04 10:08:28;;;;;;;7.47;2.97;;;11.00;99.90;;;;;;4991682;28;20092;-74
2024/04/04 10:11:06;;;;;;;5.47;3.03;;;11.00;99.90;;;;;;4989307;28;20434;-73
2024/04/04 10:13:32;;;;;;;7.90;3.03;;;10.90;99.90;;;;;;5006690;28;20034;-74
2024/04/04 10:16:01;;;;;;;5.65;3.30;;;10.90;99.90;;;;;;4985863;28;20099;-74
2024/04/04 10:18:27;;;;;;;9.05;4.07;;;10.80;99.90;;;;;;4983514;28;20026;-73
2024/04/04 10:20:53;;;;;;;6.35;4.10;;;10.80;99.90;;;;;;4991624;28;20393;-74
2024/04/04 10:23:25;;;;;;;12.80;4.25;;;10.80;99.90;;;;;;4991021;28;20390;-74
2024/04/04 10:25:51;;;;;;;11.35;4.78;;;10.90;99.90;;;;;;4992478;28;20026;-74
2024/04/04 10:28:18;;;;;;;10.10;4.78;;;10.80;99.90;;;;;;4991245;28;20032;-74
2024/04/04 10:30:47;;;;;;;11.02;5.22;;;10.90;99.90;;;;;;4991279;28;20022;-74
2024/04/04 10:33:18;;;;;;;9.13;4.90;;;11.00;99.90;;;;;;5009586;28;20371;-74
2024/04/04 10:35:43;;;;;;;14.55;4.95;;;11.00;99.90;;;;;;4992416;28;20033;-75
2024/04/04 10:38:14;;;;;;;11.07;5.00;;;11.10;99.90;;;;;;4993295;28;20041;-74
2024/04/04 10:40:41;;;;;;;9.13;5.43;;;11.10;99.90;;;;;;4991937;28;20028;-75
2024/04/04 10:43:16;;;;;;;9.70;5.30;;;11.10;99.90;;;;;;4994258;28;20037;-74
2024/04/04 10:45:43;;;;;;;14.10;5.10;;;11.10;99.90;;;;;;4996883;28;20022;-75
2024/04/04 10:48:10;;;;;;;10.85;5.40;;;11.10;99.90;;;;;;5008642;28;20518;-75
2024/04/04 10:50:36;;;;;;;12.88;5.82;;;11.20;99.90;;;;;;5004907;28;20027;-74
2024/04/04 10:53:02;;;;;;;12.65;5.75;;;11.20;99.90;;;;;;5012376;28;20022;-74
2024/04/04 10:55:30;;;;;;;9.38;5.50;;;11.20;99.90;;;;;;4994579;28;20029;-74
2024/04/04 10:57:57;;;;;;;15.52;6.25;;;11.10;99.90;;;;;;4996140;28;20092;-74
2024/04/04 11:00:29;;;;;;;12.60;6.45;;;11.10;99.90;;;;;;4986885;28;20096;-74
2024/04/04 11:02:58;;;;;;;14.75;6.20;;;11.20;99.90;;;;;;5012969;28;20017;-75
2024/04/04 11:05:23;;;;;;;15.32;7.00;;;11.20;99.90;;;;;;4998292;28;20094;-74
2024/04/04 11:07:57;;;;;;;14.55;6.15;;;11.30;99.90;;;;;;4997591;28;20061;-75
2024/04/04 11:10:29;;;;;;;12.27;5.93;;;11.30;99.90;;;;;;4996440;28;20111;-75
2024/04/04 11:12:57;;;;;;;9.35;5.63;;;11.40;99.90;;;;;;4996122;28;20033;-74
2024/04/04 11:15:23;;;;;;;11.63;6.05;;;11.30;99.90;;;;;;4995177;28;20022;-75
2024/04/04 11:17:53;;;;;;;14.85;6.10;;;11.40;99.90;;;;;;4970945;28;20061;-75
2024/04/04 11:20:20;;;;;;;10.13;6.25;;;11.40;99.90;;;;;;4995166;28;20018;-74
2024/04/04 11:22:46;;;;;;;11.15;5.57;;;11.50;99.90;;;;;;5003993;28;20033;-75
2024/04/04 11:25:13;;;;;;;9.30;5.50;;;11.60;99.90;;;;;;5011099;28;20381;-74
2024/04/04 11:27:42;;;;;;;12.95;5.78;;;11.50;99.90;;;;;;4977480;28;20030;-74
2024/04/04 11:30:10;;;;;;;12.32;5.45;;;11.50;99.90;;;;;;5011352;28;20045;-74
2024/04/04 11:32:36;;;;;;;15.95;5.65;;;11.60;99.90;;;;;;5011045;28;20106;-75
2024/04/04 11:35:08;;;;;;;10.65;5.78;;;11.60;99.90;;;;;;4993175;28;20018;-74
2024/04/04 11:37:33;;;;;;;14.93;5.82;;;11.60;99.90;;;;;;4994093;28;20475;-74
2024/04/04 11:39:59;;;;;;;9.82;5.47;;;11.70;99.90;;;;;;4988962;28;20282;-73
2024/04/04 11:42:26;;;;;;;8.52;5.30;;;11.70;99.90;;;;;;5011468;28;20041;-74
2024/04/04 11:44:53;;;;;;;8.95;5.32;;;11.70;99.90;;;;;;5011022;28;20097;-73
2024/04/04 11:47:20;;;;;;;11.45;5.20;;;11.80;99.90;;;;;;4999818;28;20029;-79
2024/04/04 11:49:49;;;;;;;12.07;5.70;;;11.80;99.90;;;;;;5021906;28;20037;-79
2024/04/04 11:52:18;;;;;;;8.48;5.60;;;11.80;99.90;;;;;;5021991;28;20026;-80
2024/04/04 11:54:48;;;;;;;8.45;5.00;;;11.90;99.90;;;;;;5009583;28;20072;-79
2024/04/04 11:57:13;;;;;;;12.63;5.32;;;12.00;99.90;;;;;;4999988;28;20109;-80
2024/04/04 11:59:40;;;;;;;9.68;5.53;;;12.00;99.90;;;;;;5004532;28;20046;-80
2024/04/04 12:02:09;;;;;;;9.40;5.15;;;12.00;99.90;;;;;;4985790;28;20122;-80
2024/04/04 12:04:41;;;;;;;14.20;4.75;;;12.00;99.90;;;;;;5020009;28;20118;-79
2024/04/04 12:07:07;;;;;;;13.23;4.22;;;12.00;99.90;;;;;;5002155;28;20029;-79
2024/04/04 12:09:33;;;;;;;7.55;4.22;;;12.00;99.90;;;;;;5003317;28;20160;-79
2024/04/04 12:11:58;;;;;;;10.93;4.32;;;12.00;99.90;;;;;;5015461;28;20037;-79
2024/04/04 12:14:24;;;;;;;6.03;3.60;;;12.10;99.90;;;;;;5002340;28;20049;-78
2024/04/04 12:16:52;;;;;;;3.63;2.92;;;12.00;99.90;;;;;;5017788;28;20034;-80
2024/04/04 12:19:28;;;;;;;6.13;3.50;;;12.10;99.90;;;;;;5021939;28;20072;-80
2024/04/04 12:21:55;;;;;;;3.60;2.67;;;12.10;99.90;;;;;;5003701;28;20033;-80
2024/04/04 12:24:24;;;;;;;6.10;2.97;;;12.10;99.90;;;;;;5020262;28;20045;-80
2024/04/04 12:26:51;;;;;;;5.65;2.85;;;12.00;99.90;;;;;;5003919;28;20026;-80
2024/04/04 12:29:23;;;;;;;4.18;2.90;;;12.00;99.90;;;;;;5003462;28;20026;-80
2024/04/04 12:31:52;;;;;;;6.13;3.28;;;11.90;99.90;;;;;;5019458;28;20513;-80
2024/04/04 12:34:18;;;;;;;5.78;3.03;;;11.90;99.90;;;;;;5004281;28;20360;-81
2024/04/04 12:36:44;;;;;;;6.28;3.45;;;12.00;99.90;;;;;;5004458;28;20022;-80
2024/04/04 12:39:14;;;;;;;3.95;2.35;;;12.00;99.90;;;;;;5002597;28;20030;-80
2024/04/04 12:41:40;;;;;;;5.22;2.10;;;12.10;99.90;;;;;;5018449;28;20045;-79
2024/04/04 12:44:07;;;;;;;4.65;1.80;;;12.00;99.90;;;;;;4999635;28;20030;-79
2024/04/04 12:46:35;;;;;;;1.98;1.30;;;12.10;99.90;;;;;;5002738;28;20033;-80
2024/04/04 12:49:05;;;;;;;2.60;1.33;;;12.10;99.90;;;;;;5003666;28;20398;-80
2024/04/04 12:51:31;;;;;;;3.70;1.30;;;12.10;99.90;;;;;;5004047;28;20584;-80
2024/04/04 12:53:57;;;;;;;2.20;1.40;;;12.10;99.90;;;;;;5021783;28;20034;-80
2024/04/04 12:56:24;;;;;;;3.70;1.40;;;12.30;99.90;;;;;;5003637;28;20025;-81
2024/04/04 12:58:50;;;;;;;2.30;0.88;;;12.50;99.90;;;;;;5003408;28;20025;-81
2024/04/04 13:01:25;;;;;;;2.60;0.90;;;12.50;99.90;;;;;;5021342;28;20022;-80
2024/04/04 13:03:51;;;;;;;1.00;0.88;;;12.60;99.90;;;;;;5002560;28;20019;-79
2024/04/04 13:06:16;;;;;;;1.13;1.02;;;13.00;99.90;;;;;;5003246;28;20505;-80
2024/04/04 13:08:45;;;;;;;2.03;0.65;;;13.00;99.90;;;;;;5003463;28;20044;-80
2024/04/04 13:11:11;;;;;;;1.45;0.70;;;13.30;99.90;;;;;;4998351;28;20348;-80
2024/04/04 13:13:40;;;;;;;1.95;0.70;;;13.60;99.90;;;;;;5003247;28;20032;-80
2024/04/04 13:16:05;;;;;;;2.83;0.50;;;13.60;99.90;;;;;;5021459;28;20029;-80
2024/04/04 13:18:31;;;;;;;0.73;0.70;;;13.50;99.90;;;;;;5003484;28;20112;-80
2024/04/04 13:20:58;;;;;;;3.05;0.80;;;13.40;99.90;;;;;;5019568;28;20022;-81
2024/04/04 13:23:28;;;;;;;1.25;0.90;;;13.40;99.90;;;;;;5001585;28;20160;-80
2024/04/04 13:25:56;;;;;;;1.42;0.75;;;13.40;99.90;;;;;;5020422;28;20038;-80
2024/04/04 13:28:24;;;;;;;3.30;0.88;;;13.40;99.90;;;;;;5001952;28;20044;-79
2024/04/04 13:30:53;;;;;;;1.50;0.55;;;13.40;99.90;;;;;;5020750;28;20391;-79
2024/04/04 13:33:19;;;;;;;1.27;0.63;;;13.50;99.90;;;;;;5002039;28;20033;-79
2024/04/04 13:35:47;;;;;;;2.15;1.63;;;13.40;99.90;;;;;;5001794;28;20032;-79
2024/04/04 13:38:16;;;;;;;5.22;1.15;;;13.40;99.90;;;;;;5001188;28;20317;-79
2024/04/04 13:40:41;;;;;;;1.75;0.60;;;13.60;99.90;;;;;;5001682;28;20026;-81
2024/04/04 13:43:10;;;;;;;1.95;0.60;;;13.60;99.90;;;;;;5001640;28;20454;-80
2024/04/04 13:45:35;;;;;;;2.33;0.77;;;13.70;99.90;;;;;;5002555;28;20030;-79
2024/04/04 13:48:02;;;;;;;1.13;0.80;;;13.90;99.90;;;;;;5016391;28;20080;-79
2024/04/04 13:50:31;;;;;;;1.80;0.70;;;14.10;99.90;;;;;;4999393;28;20108;-79
2024/04/04 13:53:00;;;;;;;1.27;0.80;;;14.20;99.90;;;;;;5004791;28;20026;-79
2024/04/04 13:55:26;;;;;;;2.38;0.80;;;14.50;99.90;;;;;;5019584;28;20430;-79